createdAt,value
2022-12-13T00:01:26.367Z,26.40
2022-12-13T00:03:54.760Z,25.02
2022-12-13T00:06:21.782Z,25.88
2022-12-13T00:08:48.946Z,25.35
2022-12-13T00:11:15.964Z,23.77
2022-12-13T00:13:43.636Z,25.05
2022-12-13T00:16:13.372Z,24.92
2022-12-13T00:18:40.167Z,23.77
2022-12-13T00:21:08.275Z,24.20
2022-12-13T00:23:36.613Z,23.75
2022-12-13T00:26:05.290Z,23.80
2022-12-13T00:28:32.337Z,24.30
2022-12-13T00:31:18.928Z,23.25
2022-12-13T00:33:46.900Z,22.90
2022-12-13T00:36:14.024Z,22.67
2022-12-13T00:38:40.758Z,23.05
2022-12-13T00:41:16.373Z,24.20
2022-12-13T00:43:43.218Z,24.20
2022-12-13T00:46:21.295Z,25.45
2022-12-13T00:48:54.067Z,24.67
2022-12-13T00:51:23.230Z,24.00
2022-12-13T00:53:49.959Z,25.05
2022-12-13T00:56:21.401Z,25.23
2022-12-13T00:58:52.396Z,25.30
2022-12-13T01:01:23.090Z,23.85
2022-12-13T01:03:50.282Z,24.65
2022-12-13T01:06:23.012Z,25.17
2022-12-13T01:08:50.117Z,23.90
2022-12-13T01:11:16.918Z,23.27
2022-12-13T01:13:43.729Z,24.33
2022-12-13T01:16:11.797Z,24.98
2022-12-13T01:18:39.576Z,25.13
2022-12-13T01:21:07.834Z,24.55
2022-12-13T01:23:34.757Z,25.00
2022-12-13T01:26:09.797Z,25.20
2022-12-13T01:28:36.680Z,24.70
2022-12-13T01:31:09.854Z,24.52
2022-12-13T01:33:37.396Z,25.05
2022-12-13T01:36:07.224Z,24.13
2022-12-13T01:38:37.644Z,24.80
2022-12-13T01:41:16.817Z,24.23
2022-12-13T01:43:44.786Z,23.75
2022-12-13T01:46:13.481Z,23.52
2022-12-13T01:48:46.289Z,23.38
2022-12-13T01:51:20.372Z,23.80
2022-12-13T01:53:49.092Z,24.33
2022-12-13T01:56:27.265Z,23.15
2022-12-13T01:58:55.907Z,22.80
2022-12-13T02:01:23.047Z,24.27
2022-12-13T02:03:49.813Z,23.63
2022-12-13T02:06:19.377Z,23.33
2022-12-13T02:08:46.824Z,23.75
2022-12-13T02:11:14.564Z,23.27
2022-12-13T02:13:41.227Z,23.17
2022-12-13T02:16:15.434Z,23.00
2022-12-13T02:19:04.684Z,22.83
2022-12-13T02:21:34.281Z,22.90
2022-12-13T02:24:28.348Z,22.13
2022-12-13T02:27:08.209Z,22.63
2022-12-13T02:29:53.787Z,23.23
2022-12-13T02:32:41.592Z,22.42
2022-12-13T02:35:18.747Z,23.20
2022-12-13T02:38:08.851Z,23.23
2022-12-13T02:40:45.279Z,22.65
2022-12-13T02:43:38.980Z,23.80
2022-12-13T02:46:14.296Z,22.13
2022-12-13T02:48:42.849Z,22.80
2022-12-13T02:51:11.758Z,23.50
2022-12-13T02:53:40.759Z,22.80
2022-12-13T02:56:07.734Z,22.65
2022-12-13T02:58:40.231Z,22.23
2022-12-13T03:01:29.049Z,22.38
2022-12-13T03:04:14.996Z,22.42
2022-12-13T03:06:59.579Z,22.30
2022-12-13T03:09:47.482Z,23.15
2022-12-13T03:12:42.763Z,23.70
2022-12-13T03:15:34.648Z,22.73
2022-12-13T03:18:15.469Z,23.48
2022-12-13T03:20:51.536Z,22.80
2022-12-13T03:23:20.061Z,22.08
2022-12-13T03:25:50.842Z,21.83
2022-12-13T03:28:19.353Z,23.75
2022-12-13T03:30:46.336Z,22.77
2022-12-13T03:33:13.087Z,23.38
2022-12-13T03:35:45.463Z,23.48
2022-12-13T03:38:22.955Z,22.48
2022-12-13T03:40:56.262Z,22.00
2022-12-13T03:43:23.690Z,23.55
2022-12-13T03:45:52.513Z,24.13
2022-12-13T03:48:22.102Z,22.80
2022-12-13T03:50:51.977Z,22.67
2022-12-13T03:53:23.284Z,21.80
2022-12-13T03:58:36.428Z,23.00
2022-12-13T04:01:09.160Z,21.42
2022-12-13T04:03:37.129Z,22.42
2022-12-13T04:06:04.625Z,22.02
2022-12-13T04:08:31.347Z,22.35
2022-12-13T04:10:58.042Z,21.77
2022-12-13T04:13:36.447Z,22.48
2022-12-13T04:16:03.657Z,21.55
2022-12-13T04:18:30.732Z,21.92
2022-12-13T04:20:58.073Z,21.15
2022-12-13T04:23:24.948Z,22.40
2022-12-13T04:25:52.082Z,21.85
2022-12-13T04:28:22.151Z,20.52
2022-12-13T04:30:54.138Z,22.27
2022-12-13T04:33:25.113Z,21.80
2022-12-13T04:35:52.218Z,21.67
2022-12-13T04:38:19.183Z,22.17
2022-12-13T04:40:46.007Z,22.00
2022-12-13T04:43:12.635Z,21.52
2022-12-13T04:45:39.441Z,21.02
2022-12-13T04:48:06.355Z,22.77
2022-12-13T04:50:33.687Z,21.55
2022-12-13T04:53:00.446Z,21.77
2022-12-13T04:55:27.276Z,21.38
2022-12-13T04:57:54.072Z,21.50
2022-12-13T05:00:22.392Z,21.55
2022-12-13T05:02:49.238Z,21.08
2022-12-13T05:05:16.610Z,21.35
2022-12-13T05:07:43.610Z,21.80
2022-12-13T05:10:35.684Z,21.33
2022-12-13T05:13:00.214Z,21.15
2022-12-13T05:15:27.760Z,23.35
2022-12-13T05:17:56.583Z,25.27
2022-12-13T05:20:23.264Z,27.50
2022-12-13T05:22:50.111Z,24.33
2022-12-13T05:25:17.209Z,23.42
2022-12-13T05:27:44.102Z,23.75
2022-12-13T05:30:11.396Z,23.23
2022-12-13T05:32:42.523Z,23.52
2022-12-13T05:35:13.144Z,22.92
2022-12-13T05:37:40.101Z,23.15
2022-12-13T05:40:07.634Z,23.92
2022-12-13T05:42:34.361Z,21.52
2022-12-13T05:45:01.009Z,22.92
2022-12-13T05:47:27.652Z,21.83
2022-12-13T05:49:54.400Z,21.70
2022-12-13T05:52:30.899Z,22.75
2022-12-13T05:55:00.804Z,22.05
2022-12-13T05:57:28.093Z,23.60
2022-12-13T05:59:54.829Z,21.25
2022-12-13T06:02:22.161Z,22.42
2022-12-13T06:04:49.272Z,22.45
2022-12-13T06:07:16.534Z,22.38
2022-12-13T06:09:45.430Z,22.27
2022-12-13T06:12:31.837Z,23.05
2022-12-13T06:15:00.788Z,21.27
2022-12-13T06:17:35.754Z,22.38
2022-12-13T06:20:03.736Z,22.80
2022-12-13T06:22:50.447Z,22.52
2022-12-13T06:25:31.192Z,22.45
2022-12-13T06:28:00.960Z,23.02
2022-12-13T06:30:29.140Z,22.67
2022-12-13T06:32:56.655Z,23.52
2022-12-13T06:35:29.135Z,22.63
2022-12-13T06:38:01.954Z,22.23
2022-12-13T06:40:30.360Z,21.65
2022-12-13T06:42:57.422Z,22.42
2022-12-13T06:45:24.932Z,20.95
2022-12-13T06:47:51.604Z,21.75
2022-12-13T06:50:18.269Z,22.08
2022-12-13T06:52:47.216Z,22.50
2022-12-13T06:55:14.515Z,21.58
2022-12-13T06:57:41.700Z,21.38
2022-12-13T07:00:09.889Z,22.88
2022-12-13T07:02:38.079Z,22.95
2022-12-13T07:05:05.693Z,22.90
2022-12-13T07:07:32.521Z,21.55
2022-12-13T07:09:59.287Z,22.65
2022-12-13T07:12:25.934Z,21.35
2022-12-13T07:14:52.685Z,22.42
2022-12-13T07:17:33.205Z,21.60
2022-12-13T07:22:29.035Z,22.05
2022-12-13T07:25:01.632Z,21.75
2022-12-13T07:27:28.326Z,22.38
2022-12-13T07:29:54.961Z,22.10
2022-12-13T07:32:21.619Z,21.95
2022-12-13T07:34:48.461Z,21.98
2022-12-13T07:37:30.512Z,22.80
2022-12-13T07:40:03.267Z,22.73
2022-12-13T07:42:30.878Z,22.45
2022-12-13T07:44:57.545Z,22.55
2022-12-13T07:47:25.867Z,22.33
2022-12-13T07:49:52.554Z,23.20
2022-12-13T07:52:19.261Z,22.10
2022-12-13T07:54:45.926Z,23.90
2022-12-13T07:57:13.334Z,22.88
2022-12-13T07:59:40.002Z,22.73
2022-12-13T08:02:10.030Z,22.67
2022-12-13T08:04:37.479Z,23.52
2022-12-13T08:07:09.010Z,23.70
2022-12-13T08:09:36.098Z,23.42
2022-12-13T08:12:03.050Z,23.20
2022-12-13T08:14:29.822Z,23.45
2022-12-13T08:16:56.711Z,24.27
2022-12-13T08:19:23.621Z,25.35
2022-12-13T08:21:55.712Z,25.20
2022-12-13T08:24:25.233Z,24.67
2022-12-13T08:26:52.076Z,23.95
2022-12-13T08:29:22.974Z,25.48
2022-12-13T08:32:01.695Z,25.45
2022-12-13T08:34:28.658Z,23.92
2022-12-13T08:37:01.947Z,25.73
2022-12-13T08:39:34.134Z,23.58
2022-12-13T08:42:16.170Z,23.48
2022-12-13T08:44:50.110Z,23.67
2022-12-13T08:47:23.249Z,24.27
2022-12-13T08:50:01.911Z,25.38
2022-12-13T08:52:31.177Z,25.17
2022-12-13T08:54:57.859Z,25.40
2022-12-13T08:57:24.560Z,25.67
2022-12-13T08:59:51.263Z,25.63
2022-12-13T09:02:18.103Z,25.55
2022-12-13T09:04:45.170Z,26.98
2022-12-13T09:07:12.320Z,26.65
2022-12-13T09:09:38.999Z,25.88
2022-12-13T09:12:10.892Z,27.05
2022-12-13T09:14:52.709Z,25.73
2022-12-13T09:17:36.683Z,25.90
2022-12-13T09:20:10.371Z,26.25
2022-12-13T09:22:54.502Z,26.85
2022-12-13T09:25:37.029Z,26.70
2022-12-13T09:28:08.491Z,26.08
2022-12-13T09:30:39.450Z,26.47
2022-12-13T09:33:18.268Z,26.77
2022-12-13T09:35:54.175Z,27.23
2022-12-13T09:38:20.972Z,26.13
2022-12-13T09:40:50.302Z,28.60
2022-12-13T09:43:32.619Z,27.23
2022-12-13T09:46:13.355Z,29.15
2022-12-13T09:48:51.748Z,27.50
2022-12-13T09:51:28.367Z,27.15
2022-12-13T09:53:58.982Z,27.83
2022-12-13T09:56:26.050Z,28.17
2022-12-13T09:58:56.233Z,28.15
2022-12-13T10:01:24.031Z,27.73
2022-12-13T10:03:54.039Z,27.58
2022-12-13T10:06:24.112Z,28.45
2022-12-13T10:08:59.306Z,29.38
2022-12-13T10:11:32.034Z,28.35
2022-12-13T10:14:15.786Z,28.52
2022-12-13T10:16:48.152Z,28.30
2022-12-13T10:19:33.687Z,28.05
2022-12-13T10:22:03.047Z,27.92
2022-12-13T10:24:48.330Z,27.80
2022-12-13T10:27:18.181Z,27.95
2022-12-13T10:29:59.697Z,28.10
2022-12-13T10:32:27.038Z,28.55
2022-12-13T10:34:56.689Z,27.85
2022-12-13T10:37:23.365Z,28.77
2022-12-13T10:39:50.348Z,28.75
2022-12-13T10:42:23.704Z,28.00
2022-12-13T10:45:15.669Z,27.55
2022-12-13T10:47:45.356Z,29.00
2022-12-13T10:50:27.216Z,29.13
2022-12-13T10:55:40.366Z,27.65
2022-12-13T10:58:18.226Z,27.80
2022-12-13T11:00:47.300Z,27.55
2022-12-13T11:03:33.727Z,28.60
2022-12-13T11:06:18.763Z,28.48
2022-12-13T11:08:45.489Z,27.83
2022-12-13T11:11:13.048Z,27.95
2022-12-13T11:13:47.083Z,27.67
2022-12-13T11:16:43.098Z,28.52
2022-12-13T11:19:20.750Z,27.02
2022-12-13T11:21:50.013Z,29.63
2022-12-13T11:24:32.830Z,28.65
2022-12-13T11:27:09.422Z,27.25
2022-12-13T11:29:54.730Z,29.52
2022-12-13T11:32:41.317Z,27.95
2022-12-13T11:35:20.308Z,28.40
2022-12-13T11:37:49.777Z,27.92
2022-12-13T11:40:43.434Z,28.05
2022-12-13T11:43:33.220Z,26.67
2022-12-13T11:46:04.918Z,26.80
2022-12-13T11:51:34.966Z,26.48
2022-12-13T11:54:08.811Z,27.08
2022-12-13T11:56:40.114Z,27.27
2022-12-13T11:59:39.926Z,26.55
2022-12-13T12:02:19.348Z,27.17
2022-12-13T12:05:00.901Z,27.73
2022-12-13T12:10:28.615Z,25.65
2022-12-13T12:13:04.674Z,25.27
2022-12-13T12:15:43.029Z,25.73
2022-12-13T12:18:15.294Z,24.30
2022-12-13T12:21:10.824Z,26.05
2022-12-13T12:23:52.489Z,25.88
2022-12-13T12:26:28.705Z,25.70
2022-12-13T12:29:01.444Z,25.55
2022-12-13T12:31:50.809Z,27.08
2022-12-13T12:34:49.288Z,26.75
2022-12-13T12:37:38.605Z,25.63
2022-12-13T12:40:27.011Z,26.05
2022-12-13T12:43:14.179Z,27.40
2022-12-13T12:46:08.506Z,27.52
2022-12-13T12:49:22.244Z,28.88
2022-12-13T12:51:57.943Z,27.02
2022-12-13T12:55:07.980Z,27.65
2022-12-13T12:58:01.385Z,28.33
2022-12-13T13:00:34.745Z,27.63
2022-12-13T13:03:22.661Z,27.17
2022-12-13T13:06:17.163Z,27.63
2022-12-13T13:09:03.444Z,26.27
2022-12-13T13:11:34.150Z,27.40
2022-12-13T13:14:34.894Z,28.02
2022-12-13T13:17:21.541Z,27.88
2022-12-13T13:19:50.316Z,28.88
2022-12-13T13:22:34.220Z,28.33
2022-12-13T13:25:09.886Z,28.23
2022-12-13T13:27:42.219Z,28.90
2022-12-13T13:30:23.815Z,29.00
2022-12-13T13:32:53.199Z,28.58
2022-12-13T13:35:32.124Z,27.05
2022-12-13T13:38:03.484Z,28.38
2022-12-13T13:40:38.390Z,28.40
2022-12-13T13:43:11.117Z,27.73
2022-12-13T13:45:49.959Z,27.85
2022-12-13T13:48:50.034Z,27.60
2022-12-13T13:52:16.639Z,28.98
2022-12-13T13:55:14.669Z,28.90
2022-12-13T13:58:14.178Z,29.88
2022-12-13T14:01:11.188Z,29.75
2022-12-13T14:03:56.637Z,28.05
2022-12-13T14:06:35.313Z,29.42
2022-12-13T14:09:29.236Z,28.08
2022-12-13T14:12:14.640Z,28.15
2022-12-13T14:14:49.900Z,28.77
2022-12-13T14:17:54.908Z,28.73
2022-12-13T14:20:24.363Z,28.05
2022-12-13T14:23:22.142Z,27.98
2022-12-13T14:26:13.175Z,28.83
2022-12-13T14:28:52.082Z,27.65
2022-12-13T14:31:24.529Z,27.77
2022-12-13T14:33:57.949Z,29.30
2022-12-13T14:36:35.261Z,26.92
2022-12-13T14:39:06.854Z,29.05
2022-12-13T14:41:56.475Z,29.83
2022-12-13T14:44:26.676Z,28.50
2022-12-13T14:47:08.026Z,28.90
2022-12-13T14:49:38.981Z,28.73
2022-12-13T14:52:07.430Z,29.50
2022-12-13T14:54:59.364Z,28.17
2022-12-13T14:57:28.911Z,29.38
2022-12-13T14:59:58.030Z,29.33
2022-12-13T15:02:30.334Z,29.27
2022-12-13T15:05:00.982Z,28.05
2022-12-13T15:07:36.224Z,28.70
2022-12-13T15:10:22.152Z,28.27
2022-12-13T15:12:51.709Z,28.60
2022-12-13T15:15:26.891Z,28.73
2022-12-13T15:18:26.774Z,28.55
2022-12-13T15:20:55.508Z,28.08
2022-12-13T15:23:41.748Z,28.50
2022-12-13T15:26:27.724Z,28.73
2022-12-13T15:29:09.801Z,29.80
2022-12-13T15:31:40.668Z,28.93
2022-12-13T15:34:30.368Z,28.45
2022-12-13T15:37:28.307Z,29.02
2022-12-13T15:40:01.599Z,27.58
2022-12-13T15:42:35.161Z,28.92
2022-12-13T15:45:05.176Z,28.30
2022-12-13T15:47:33.280Z,29.63
2022-12-13T15:50:02.460Z,29.25
2022-12-13T15:52:59.427Z,27.77
2022-12-13T15:55:33.242Z,29.52
2022-12-13T15:57:59.923Z,28.13
2022-12-13T16:00:32.846Z,29.90
2022-12-13T16:03:14.649Z,29.60
2022-12-13T16:08:30.149Z,28.15
2022-12-13T16:10:58.440Z,27.85
2022-12-13T16:13:26.166Z,28.13
2022-12-13T16:15:59.814Z,27.85
2022-12-13T16:18:44.893Z,28.58
2022-12-13T16:21:11.650Z,28.58
2022-12-13T16:23:38.332Z,28.15
2022-12-13T16:26:08.907Z,28.42
2022-12-13T16:28:36.286Z,28.75
2022-12-13T16:31:23.705Z,28.92
2022-12-13T16:33:50.586Z,29.00
2022-12-13T16:36:17.441Z,29.88
2022-12-13T16:38:44.185Z,28.50
2022-12-13T16:41:11.407Z,30.02
2022-12-13T16:43:44.965Z,29.23
2022-12-13T16:47:16.708Z,28.85
2022-12-13T16:49:01.929Z,28.83
2022-12-13T16:51:28.574Z,29.10
2022-12-13T16:53:55.264Z,30.02
2022-12-13T16:56:22.205Z,27.02
2022-12-13T16:58:50.551Z,29.38
2022-12-13T17:01:20.366Z,28.25
2022-12-13T17:03:47.818Z,28.70
2022-12-13T17:06:18.442Z,28.13
2022-12-13T17:08:45.084Z,28.98
2022-12-13T17:11:17.777Z,29.80
2022-12-13T17:13:46.907Z,29.67
2022-12-13T17:16:14.175Z,31.23
2022-12-13T17:18:41.126Z,28.75
2022-12-13T17:21:09.801Z,29.15
2022-12-13T17:23:36.897Z,30.48
2022-12-13T17:26:09.651Z,29.17
2022-12-13T17:28:36.743Z,30.25
2022-12-13T17:31:14.705Z,31.55
2022-12-13T17:33:42.273Z,29.48
2022-12-13T17:36:10.756Z,30.40
2022-12-13T17:38:41.004Z,30.15
2022-12-13T17:41:07.684Z,31.92
2022-12-13T17:43:35.651Z,30.60
2022-12-13T17:46:05.363Z,30.15
2022-12-13T17:48:39.250Z,29.95
2022-12-13T17:51:08.433Z,30.42
2022-12-13T17:53:36.069Z,30.00
2022-12-13T17:56:06.529Z,29.90
2022-12-13T17:58:34.214Z,30.20
2022-12-13T18:01:13.442Z,31.08
2022-12-13T18:03:40.494Z,30.85
2022-12-13T18:06:07.412Z,32.00
2022-12-13T18:08:39.014Z,30.80
2022-12-13T18:11:31.664Z,30.10
2022-12-13T18:13:55.506Z,30.77
2022-12-13T18:16:23.918Z,28.95
2022-12-13T18:18:54.695Z,31.75
2022-12-13T18:23:55.389Z,29.23
2022-12-13T18:26:23.935Z,29.45
2022-12-13T18:28:50.841Z,31.80
2022-12-13T18:31:20.196Z,30.17
2022-12-13T18:33:48.240Z,31.17
2022-12-13T18:36:19.190Z,30.63
2022-12-13T18:38:45.997Z,31.07
2022-12-13T18:41:15.832Z,30.65
2022-12-13T18:43:43.725Z,31.13
2022-12-13T18:46:12.437Z,30.77
2022-12-13T18:48:39.329Z,30.30
2022-12-13T18:51:07.849Z,30.83
2022-12-13T18:53:35.436Z,31.00
2022-12-13T18:56:04.814Z,29.48
2022-12-13T18:58:35.780Z,29.75
2022-12-13T19:01:04.860Z,31.00
2022-12-13T19:03:32.556Z,30.75
2022-12-13T19:06:01.210Z,30.00
2022-12-13T19:08:28.746Z,30.30
2022-12-13T19:10:56.985Z,31.48
2022-12-13T19:13:25.441Z,29.98
2022-12-13T19:15:53.487Z,29.60
2022-12-13T19:18:20.770Z,29.55
2022-12-13T19:20:48.694Z,30.10
2022-12-13T19:23:16.308Z,29.27
2022-12-13T19:25:43.245Z,30.40
2022-12-13T19:28:11.318Z,30.83
2022-12-13T19:30:38.606Z,30.98
2022-12-13T19:33:07.032Z,30.27
2022-12-13T19:35:34.089Z,30.70
2022-12-13T19:38:00.783Z,29.95
2022-12-13T19:40:27.796Z,28.67
2022-12-13T19:42:54.670Z,28.83
2022-12-13T19:45:21.813Z,29.35
2022-12-13T19:47:48.802Z,28.00
2022-12-13T19:50:15.828Z,29.67
2022-12-13T19:52:42.539Z,28.25
2022-12-13T19:55:09.437Z,28.05
2022-12-13T19:57:36.097Z,28.75
2022-12-13T20:00:04.884Z,27.95
2022-12-13T20:02:31.689Z,27.80
2022-12-13T20:04:58.571Z,28.15
2022-12-13T20:07:26.665Z,26.67
2022-12-13T20:09:53.427Z,27.38
2022-12-13T20:12:20.829Z,28.10
2022-12-13T20:14:47.742Z,28.80
2022-12-13T20:17:14.604Z,27.55
2022-12-13T20:19:41.255Z,28.10
2022-12-13T20:22:08.127Z,27.70
2022-12-13T20:24:34.782Z,29.05
2022-12-13T20:27:01.924Z,27.15
2022-12-13T20:29:28.674Z,27.92
2022-12-13T20:31:55.441Z,26.85
2022-12-13T20:34:22.149Z,27.08
2022-12-13T20:36:49.297Z,26.63
2022-12-13T20:39:15.954Z,27.08
2022-12-13T20:41:43.016Z,26.80
2022-12-13T20:44:12.230Z,25.88
2022-12-13T20:46:39.462Z,27.65
2022-12-13T20:49:09.974Z,26.48
2022-12-13T20:51:38.437Z,26.98
2022-12-13T20:54:05.202Z,26.33
2022-12-13T20:56:36.753Z,26.70
2022-12-13T20:59:05.738Z,25.63
2022-12-13T21:01:35.137Z,25.33
2022-12-13T21:04:04.920Z,25.40
2022-12-13T21:06:34.235Z,26.00
2022-12-13T21:09:04.446Z,26.48
2022-12-13T21:11:38.611Z,27.27
2022-12-13T21:14:20.824Z,25.95
2022-12-13T21:16:51.437Z,25.65
2022-12-13T21:19:22.427Z,25.63
2022-12-13T21:21:49.660Z,24.35
2022-12-13T21:24:18.432Z,25.67
2022-12-13T21:26:45.270Z,25.60
2022-12-13T21:29:13.338Z,24.75
2022-12-13T21:31:42.994Z,24.08
2022-12-13T21:34:11.019Z,24.20
2022-12-13T21:36:40.751Z,25.23
2022-12-13T21:39:22.561Z,25.20
2022-12-13T21:41:49.718Z,24.38
2022-12-13T21:44:17.481Z,25.23
2022-12-13T21:49:31.429Z,24.58
2022-12-13T21:51:58.146Z,24.30
2022-12-13T21:54:24.915Z,23.80
2022-12-13T21:57:10.319Z,24.55
2022-12-13T21:59:37.140Z,24.95
2022-12-13T22:02:14.334Z,23.83
2022-12-13T22:04:45.310Z,25.00
2022-12-13T22:07:24.431Z,24.17
2022-12-13T22:09:52.472Z,24.73
2022-12-13T22:12:22.396Z,24.63
2022-12-13T22:14:50.093Z,24.10
2022-12-13T22:17:17.888Z,25.10
2022-12-13T22:19:48.364Z,23.65
2022-12-13T22:22:22.300Z,23.90
2022-12-13T22:24:53.445Z,24.42
2022-12-13T22:27:24.406Z,23.33
2022-12-13T22:29:57.093Z,22.75
2022-12-13T22:32:29.472Z,23.10
2022-12-13T22:34:56.993Z,23.52
2022-12-13T22:37:24.757Z,24.35
2022-12-13T22:39:51.615Z,23.00
2022-12-13T22:42:18.392Z,23.00
2022-12-13T22:44:45.100Z,23.33
2022-12-13T22:47:11.938Z,23.13
2022-12-13T22:49:38.632Z,22.48
2022-12-13T22:52:05.503Z,23.65
2022-12-13T22:54:32.177Z,24.17
2022-12-13T22:56:59.280Z,23.13
2022-12-13T22:59:25.949Z,23.27
2022-12-13T23:02:01.408Z,23.38
2022-12-13T23:04:29.089Z,22.90
2022-12-13T23:06:55.890Z,22.35
2022-12-13T23:09:22.584Z,23.00
2022-12-13T23:12:07.697Z,22.75
2022-12-13T23:14:34.757Z,22.42
2022-12-13T23:17:05.702Z,21.73
2022-12-13T23:19:50.662Z,16.83
2022-12-13T23:22:22.400Z,21.65
2022-12-13T23:24:49.824Z,21.10
2022-12-13T23:27:16.854Z,21.67
2022-12-13T23:29:43.543Z,21.85
2022-12-13T23:32:10.280Z,21.63
2022-12-13T23:34:37.059Z,22.52
2022-12-13T23:37:04.816Z,20.85
2022-12-13T23:39:31.552Z,21.90
2022-12-13T23:41:58.296Z,22.27
2022-12-13T23:44:24.972Z,21.83
2022-12-13T23:46:54.291Z,21.58
2022-12-13T23:49:20.974Z,21.50
2022-12-13T23:51:47.647Z,20.80
2022-12-13T23:54:19.435Z,20.67
2022-12-13T23:59:16.511Z,19.60
